x

Great Slave Lake (45141) Weather Station

2:00pm - Fri 18th Aug 2017 All times are UTC.

  • Peak Period 2s
  • Wind
    13mph, 18mph gusts
  • Sea Temp 64°f
  • Air Temp 64°f
  • Sea Pressure 997.2mb

More Historic Weather Station data

Upgrade to MSW Pro to gain access to the past 30 days of data for over 8000 Wavebouys and Weather Stations around the globe.

Join

Comparision Forecast

View Surf forecast
   
Fri 08/18 2:00pm  -  2s 13 18 mph 997.2mb 64f 64f
1:00pm  -  2s 13 18 mph 997.7mb 64f 64f
12:00pm  -  2s 11 13 mph 997.9mb 64f 64f
11:00am  -  2s 20 25 mph 999.2mb 64f 66f
10:00am  -  2s 22 29 mph 998.8mb 64f 67f
9:00am  -  2s 9 13 mph 999.3mb 64f 65f
8:00am  -  2s 11 13 mph 999.9mb 64f 65f
7:00am  -  2s 11 13 mph 1000.6mb 65f 66f
6:00am  -  2s 9 11 mph 1001.4mb 65f 66f
5:00am  -  2s 11 13 mph 1001.9mb 65f 66f
4:00am  -  3s 13 13 mph 1002.5mb 65f 67f
3:00am  -  2s 11 13 mph 1002.9mb 65f 66f
2:00am  -  3s 11 13 mph 1003.2mb 65f 66f
1:00am  -  2s 11 13 mph 1003.7mb 66f 66f
12:00am  -  8s 9 11 mph 1003.9mb 66f 67f
Thu 08/17 11:00pm  -  4s 4 7 mph 1004.4mb 67f 67f
10:00pm  -  3s 2 4 mph 1004.8mb 67f 68f
9:00pm  -  5s 2 2 mph 1004.8mb 66f 67f
8:00pm  -  2s  -  0 mph 1005mb 65f 67f
7:00pm  -  3s 7 9 mph 1005.2mb 65f 64f
6:00pm  -  3s 9 11 mph 1005.3mb 65f 63f
5:00pm  -  2s 11 13 mph 1005.2mb 65f 63f
4:00pm  -  4s 9 9 mph 1005.1mb 65f 64f
3:00pm  -  5s 4 7 mph 1005.1mb 64f 65f
2:00pm  -  2s 7 7 mph 1005.1mb 64f 64f
1:00pm 2.5ft 14s 9 9 mph 1005.1mb 64f 64f
12:00pm 2.5ft 4s 11 13 mph 1004.7mb 64f 64f
11:00am 2.5ft 4s 13 16 mph 1004.6mb 64f 64f
9:00am  -  2s 18 22 mph 1004.4mb 64f 65f
8:00am  -  2s 18 20 mph 1004.4mb 64f 65f
7:00am  -  2s 13 16 mph 1004.6mb 64f 65f
6:00am  -  2s 11 13 mph 1004.4mb 65f 66f
5:00am  -  2s 11 18 mph 1004.1mb 65f 67f
4:00am  -  2s 4 4 mph 1003.9mb 65f 67f
3:00am  -  2s 4 4 mph 1003.5mb 65f 67f
2:00am  -  4s 7 7 mph 1003.1mb 65f 67f
1:00am  -  14s 4 7 mph 1003.1mb 65f 67f
12:00am  -  2s 9 9 mph 1003mb 65f 67f
Wed 08/16 11:00pm  -  2s 9 9 mph 1003.1mb 65f 66f
10:00pm  -  7s 9 13 mph 1003.2mb 65f 66f
9:00pm  -  3s 4 4 mph 1003.1mb 65f 67f
8:00pm  -  4s 4 7 mph 1003.1mb 64f 66f
7:00pm  -  9s 9 11 mph 1002.9mb 64f 65f
6:00pm 2.5ft 15s 13 16 mph 1002.8mb 64f 65f
5:00pm 3.5ft 4s 18 20 mph 1002.8mb 64f 63f
4:00pm 4.5ft 5s 20 22 mph 1002.8mb 64f 62f
3:00pm 4.5ft 4s 22 27 mph 1002.6mb 64f 61f
2:00pm  -   -  25
mph
1002.4mb - 62f
1:00pm 3.5ft 4s 18 22 mph 1002.7mb 64f 60f
11:00am 3.5ft 4s 20 22 mph 1002.1mb 64f 61f
10:00am 3ft 4s 20 25 mph 1001.8mb 65f 62f
9:00am 3ft 4s 18 22 mph 1001.9mb 65f 62f
7:00am 3.5ft 4s 18 22 mph 1001.7mb 65f 65f
6:00am 6ft 15s 18 22 mph 1001.6mb 65f 65f
5:00am  -  2s 20 22 mph 1001.4mb 65f 64f
4:00am  -  2s 13 16 mph 1001.9mb 65f 63f
3:00am  -  2s 11 13 mph 1002mb 65f 63f
2:00am  -  2s 4 7 mph 1002.3mb 65f 64f
1:00am  -  2s 13 18 mph 1002.3mb 65f 64f
12:00am  -  2s 11 11 mph 1002.4mb 65f 65f
Tue 08/15 11:00pm  -  4s 9 11 mph 1002.7mb 65f 64f
10:00pm  -  2s 7 9 mph 1002.6mb 66f 63f
9:00pm  -  9s 9 9 mph 1002.9mb 66f 63f
8:00pm  -  2s 9 9 mph 1003.1mb 65f 63f
7:00pm  -  2s 7 9 mph 1002.8mb 65f 63f
6:00pm  -  2s 7 9 mph 1002.7mb 65f 62f
5:00pm  -  2s 9 11 mph 1002.6mb 65f 62f
4:00pm  -  2s 4 4 mph 1002.8mb 65f 63f
3:00pm  -  2s 7 9 mph 1002.8mb 65f 63f
2:00pm  -  2s 9 11 mph 1002.6mb 65f 63f
1:00pm  -  2s 7 11 mph 1002.5mb 65f 64f
12:00pm  -  10s 13 16 mph 1002.1mb 65f 64f
11:00am  -  3s 18 20 mph 1002mb 65f 64f
10:00am  -  2s 20
mph
1001.9mb 66f 64f
9:00am  -  4s 20 22 mph 1002.2mb 66f 64f
8:00am  -  2s 29 36 mph 1002.6mb 67f 65f
7:00am  -  5s 9 11 mph 1001.7mb 67f 68f
6:00am  -  2s 7 7 mph 1002.1mb 67f 68f
5:00am  -  3s 4 7 mph 1002mb 68f 68f
4:00am  -  3s 7 7 mph 1002.3mb 68f 69f
3:00am  -  2s 4 4 mph 1002.3mb 68f 69f
2:00am  -  10s 2 4 mph 1001.9mb 69f 69f
1:00am  -  5s 4 4 mph 1001.8mb 69f 70f
Mon 08/14 11:00pm  -  2s 2 2 mph 1001.7mb 69f 71f
10:00pm  -  2s  -  2 mph 1001.8mb 69f 71f
9:00pm  -  12s 4 4 mph 1001.6mb 68f 69f
8:00pm  -  2s 4 4 mph 1001.5mb 67f 69f
7:00pm  -  2s 4 4 mph 1001.4mb 67f 67f
6:00pm  -  3s 7 7 mph 1001.2mb 66f 67f
5:00pm  -  3s 9 11 mph 1001.2mb 66f 66f